Terminal Aerodrome Forecast
Issued by NWS

Current Version | Previous Version | Graphics & Text | Print | Product List | Glossary On
Versions: 1 2 3 4 5 6 7 8 9 10 11 12 13 14 15 16 17 18 19 20 21 22 23 24 25
000
FTUS41 KILN 012300
TAFLUK
TAF
KLUK 012332Z 0200/0224 02004KT P6SM SCT050 BKN250
     FM020600 09004KT P6SM BKN050
     FM020900 VRB03KT 2SM BR SCT050 BKN100
     FM021300 13005KT P6SM VCSH SCT020 BKN035
     FM022300 09003KT P6SM BKN040=

USA.gov is the U.S. government's official web portal to all federal, state and local government web resources and services.